Air Quality Table

TIMESTAMP NO2 SO2 O3 PM10 TEMP HUM AIRPRES WS WD NO
2021-07-28 09:00 35.23 ug/m3 1.82 ug/m3 61.16 ug/m3 24.22 ug/m3 27.58 C 46.43 % 1,008.21 mbar 1.66 m/s 289.65 Deg 5.02 ug/m3
2021-07-28 01:00 17.49 ug/m3 1.43 ug/m3 82.4 ug/m3 23.71 ug/m3 27.53 C 67.97 % 1,009.24 mbar 1.14 m/s 183.7 Deg 0.79 ug/m3
2021-07-27 17:00 4.38 ug/m3 -1.69 ug/m3 108.29 ug/m3 11.02 ug/m3 29.32 C 71.21 % 1,010.25 mbar 2.58 m/s 121.31 Deg 0.77 ug/m3
2021-07-27 09:00 12.73 ug/m3 1.21 ug/m3 72.07 ug/m3 28.29 ug/m3 25.85 C 93.03 % 1,009.91 mbar 1.96 m/s 164.51 Deg 1.52 ug/m3
2021-07-27 01:00 2.99 ug/m3 1.27 ug/m3 73.13 ug/m3 29.98 ug/m3 26.35 C 91.79 % 1,009.08 mbar 3.53 m/s 155.57 Deg 0.35 ug/m3
2021-07-26 17:00 5.87 ug/m3 1.31 ug/m3 80.3 ug/m3 10.96 ug/m3 28.03 C 76.92 % 1,009.00 mbar 4.32 m/s 163.32 Deg 1.45 ug/m3
2021-07-26 09:00 4.77 ug/m3 0.45 ug/m3 70.38 ug/m3 23.67 ug/m3 25.75 C 90.86 % 1,007.57 mbar 2.75 m/s 157.99 Deg 0.63 ug/m3
2021-07-26 01:00 18.13 ug/m3 1.49 ug/m3 55.86 ug/m3 40.65 ug/m3 26.58 C 82.56 % 1,007.06 mbar 2.2 m/s 170.13 Deg 1.16 ug/m3
2021-07-25 17:00 6.19 ug/m3 1.73 ug/m3 103.58 ug/m3 22.58 ug/m3 31.01 C 41.24 % 1,007.37 mbar 2.68 m/s 146.18 Deg 0.98 ug/m3
2021-07-25 09:00 15.33 ug/m3 1.6 ug/m3 67.57 ug/m3 25.57 ug/m3 26.22 C 64.9 % 1,006.66 mbar 0.9 m/s 262.68 Deg 1.72 ug/m3
2021-07-25 01:00 13.07 ug/m3 1.64 ug/m3 82.02 ug/m3 32.07 ug/m3 27.79 C 52.04 % 1,007.09 mbar 1.36 m/s 240.6 Deg 0.62 ug/m3
2021-07-24 17:00 8.67 ug/m3 1.56 ug/m3 104.46 ug/m3 25.35 ug/m3 29.92 C 57.66 % 1,007.02 mbar 3.1 m/s 111.95 Deg 1.6 ug/m3
2021-07-24 09:00 15.94 ug/m3 1.56 ug/m3 79.12 ug/m3 27.71 ug/m3 26.26 C 66.28 % 1,006.88 mbar 1.6 m/s 275.06 Deg 1.99 ug/m3
2021-07-24 01:00 13 ug/m3 1.5 ug/m3 88.01 ug/m3 31.54 ug/m3 26.79 C 68.62 % 1,007.38 mbar 1.66 m/s 150.84 Deg 0.74 ug/m3
2021-07-23 17:00 5.82 ug/m3 1.55 ug/m3 110.76 ug/m3 10.7 ug/m3 29.39 C 55.17 % 1,007.64 mbar 3.35 m/s 156.51 Deg 0.91 ug/m3
2021-07-23 09:00 9.75 ug/m3 1.45 ug/m3 77.83 ug/m3 45.76 ug/m3 25.98 C 79.96 % 1,007.48 mbar 2.11 m/s 129.63 Deg 1.25 ug/m3
2021-07-23 01:00 9.7 ug/m3 1.61 ug/m3 93.82 ug/m3 25.14 ug/m3 28.09 C 52.86 % 1,007.92 mbar 2.27 m/s 272.33 Deg 0.61 ug/m3
2021-07-22 17:00 9.92 ug/m3 1.43 ug/m3 105.62 ug/m3 17.33 ug/m3 30 C 59.89 % 1,009.10 mbar 2.84 m/s 119.11 Deg 1.67 ug/m3
2021-07-22 09:00 26.57 ug/m3 1.4 ug/m3 55.6 ug/m3 24.74 ug/m3 25.52 C 79.66 % 1,009.13 mbar 1.5 m/s 263.48 Deg 3.75 ug/m3
2021-07-22 01:00 6.58 ug/m3 1.43 ug/m3 87.12 ug/m3 37.19 ug/m3 26.05 C 84.6 % 1,009.24 mbar 2.08 m/s 167.71 Deg 0.65 ug/m3

It is to be noted that the data is provisional and subject to quality assurance procedures. For validated data kindly refer your request to contact.air@era.org.mt